Terminal Aerodrome Forecast
Issued by NWS Upton, NY

Current Version | Previous Version | Text Only | Print | Product List | Glossary On
Versions: 1 2 3 4 5 6 7 8 9 10 11 12 13 14 15 16 17 18 19 20 21 22 23 24 25 26 27
000
FTUS41 KOKX 080531
TAFEWR
TAF
KEWR 080531Z 0806/0912 03013KT P6SM BKN150
     FM080700 02015KT P6SM SCT020 OVC080
     FM081300 02017KT 5SM -SN OVC015
     FM081500 02016G23KT 2SM -SN OVC015
     FM082000 02011KT 3SM -SN SCT007 OVC015
     FM082200 01007KT P6SM OVC025
     FM090300 04007KT P6SM OVC025=

USA.gov is the U.S. government's official web portal to all federal, state and local government web resources and services.